sensor_id;sensor_type;location;lat;lon;timestamp;noise_LAeq;noise_LA_min;noise_LA_max;noise_LA01;noise_LA95
49215;Laerm;45943;53.148;8.204;2022-11-15T00:00:54;41.46;37.72;44.54;;
49215;Laerm;45943;53.148;8.204;2022-11-15T00:03:25;41.72;38.48;45.99;;
49215;Laerm;45943;53.148;8.204;2022-11-15T00:05:51;45.80;38.48;63.28;;
49215;Laerm;45943;53.148;8.204;2022-11-15T00:08:17;41.10;37.05;48.20;;
49215;Laerm;45943;53.148;8.204;2022-11-15T00:10:56;40.93;37.72;43.94;;
49215;Laerm;45943;53.148;8.204;2022-11-15T00:13:23;46.15;37.05;63.32;;
49215;Laerm;45943;53.148;8.204;2022-11-15T00:15:49;40.83;36.80;44.09;;
49215;Laerm;45943;53.148;8.204;2022-11-15T00:18:15;40.82;37.29;44.18;;
49215;Laerm;45943;53.148;8.204;2022-11-15T00:20:41;60.84;38.30;77.51;;
49215;Laerm;45943;53.148;8.204;2022-11-15T00:23:08;43.00;38.97;45.71;;
49215;Laerm;45943;53.148;8.204;2022-11-15T00:25:35;41.21;36.80;44.67;;
49215;Laerm;45943;53.148;8.204;2022-11-15T00:28:01;48.37;36.80;66.24;;
49215;Laerm;45943;53.148;8.204;2022-11-15T00:30:28;42.08;38.81;45.25;;
49215;Laerm;45943;53.148;8.204;2022-11-15T00:32:54;62.23;39.27;76.99;;
49215;Laerm;45943;53.148;8.204;2022-11-15T00:35:21;43.33;35.96;59.42;;
49215;Laerm;45943;53.148;8.204;2022-11-15T00:37:47;40.37;35.64;44.41;;
49215;Laerm;45943;53.148;8.204;2022-11-15T00:40:14;41.31;37.72;46.40;;
49215;Laerm;45943;53.148;8.204;2022-11-15T00:42:40;42.48;37.51;58.76;;
49215;Laerm;45943;53.148;8.204;2022-11-15T00:45:07;42.39;38.12;49.18;;
49215;Laerm;45943;53.148;8.204;2022-11-15T00:47:34;43.91;38.30;56.52;;
49215;Laerm;45943;53.148;8.204;2022-11-15T00:50:00;41.27;37.16;62.78;;
49215;Laerm;45943;53.148;8.204;2022-11-15T00:52:25;39.99;35.29;43.19;;
49215;Laerm;45943;53.148;8.204;2022-11-15T00:54:51;40.78;36.26;45.18;;
49215;Laerm;45943;53.148;8.204;2022-11-15T00:57:18;41.74;37.05;47.38;;
49215;Laerm;45943;53.148;8.204;2022-11-15T00:59:43;41.04;36.54;44.83;;
49215;Laerm;45943;53.148;8.204;2022-11-15T01:02:09;41.67;38.30;46.40;;
49215;Laerm;45943;53.148;8.204;2022-11-15T01:04:35;41.19;37.29;53.55;;
49215;Laerm;45943;53.148;8.204;2022-11-15T01:07:02;54.05;37.92;72.51;;
49215;Laerm;45943;53.148;8.204;2022-11-15T01:09:28;41.09;36.54;44.37;;
49215;Laerm;45943;53.148;8.204;2022-11-15T01:11:54;41.63;37.92;45.36;;
49215;Laerm;45943;53.148;8.204;2022-11-15T01:14:20;41.81;35.64;46.35;;
49215;Laerm;45943;53.148;8.204;2022-11-15T01:16:46;41.95;37.72;46.65;;
49215;Laerm;45943;53.148;8.204;2022-11-15T01:19:12;41.91;37.72;45.61;;
49215;Laerm;45943;53.148;8.204;2022-11-15T01:21:38;41.81;36.80;47.26;;
49215;Laerm;45943;53.148;8.204;2022-11-15T01:24:04;42.04;37.92;45.11;;
49215;Laerm;45943;53.148;8.204;2022-11-15T01:26:30;47.35;37.72;65.31;;
49215;Laerm;45943;53.148;8.204;2022-11-15T01:28:56;41.22;37.05;50.24;;
49215;Laerm;45943;53.148;8.204;2022-11-15T01:31:22;44.95;34.50;62.07;;
49215;Laerm;45943;53.148;8.204;2022-11-15T01:33:48;41.46;36.54;45.71;;
49215;Laerm;45943;53.148;8.204;2022-11-15T01:36:20;41.68;37.92;46.20;;
49215;Laerm;45943;53.148;8.204;2022-11-15T01:38:53;40.32;35.29;43.79;;
49215;Laerm;45943;53.148;8.204;2022-11-15T01:41:32;40.79;36.26;55.81;;
49215;Laerm;45943;53.148;8.204;2022-11-15T01:47:16;41.89;36.80;46.65;;
49215;Laerm;45943;53.148;8.204;2022-11-15T01:52:20;47.26;37.72;66.33;;
49215;Laerm;45943;53.148;8.204;2022-11-15T01:54:56;42.88;38.65;49.08;;
49215;Laerm;45943;53.148;8.204;2022-11-15T01:57:23;43.27;36.54;49.78;;
49215;Laerm;45943;53.148;8.204;2022-11-15T01:59:49;42.06;37.29;45.40;;
49215;Laerm;45943;53.148;8.204;2022-11-15T02:02:16;41.06;36.26;44.67;;
49215;Laerm;45943;53.148;8.204;2022-11-15T02:04:44;42.21;36.26;45.07;;
49215;Laerm;45943;53.148;8.204;2022-11-15T02:07:13;41.93;38.30;45.50;;
49215;Laerm;45943;53.148;8.204;2022-11-15T02:09:40;40.93;35.96;45.71;;
49215;Laerm;45943;53.148;8.204;2022-11-15T02:12:09;40.87;35.64;45.54;;
49215;Laerm;45943;53.148;8.204;2022-11-15T02:14:38;41.30;35.96;44.83;;
49215;Laerm;45943;53.148;8.204;2022-11-15T02:20:27;40.84;36.26;44.76;;
49215;Laerm;45943;53.148;8.204;2022-11-15T02:29:01;40.68;35.29;45.11;;
49215;Laerm;45943;53.148;8.204;2022-11-15T02:34:33;40.89;36.26;44.23;;
49215;Laerm;45943;53.148;8.204;2022-11-15T02:39:50;40.98;36.54;49.58;;
49215;Laerm;45943;53.148;8.204;2022-11-15T02:42:21;41.66;37.92;45.14;;
49215;Laerm;45943;53.148;8.204;2022-11-15T02:45:11;41.59;37.51;45.29;;
49215;Laerm;45943;53.148;8.204;2022-11-15T02:47:43;41.55;36.54;48.27;;
49215;Laerm;45943;53.148;8.204;2022-11-15T02:50:16;41.11;36.80;44.54;;
49215;Laerm;45943;53.148;8.204;2022-11-15T02:52:48;40.75;35.96;43.89;;
49215;Laerm;45943;53.148;8.204;2022-11-15T02:58:03;41.17;37.51;44.32;;
49215;Laerm;45943;53.148;8.204;2022-11-15T03:00:34;41.55;37.58;44.50;;
49215;Laerm;45943;53.148;8.204;2022-11-15T03:05:59;44.67;39.55;50.65;;
49215;Laerm;45943;53.148;8.204;2022-11-15T03:11:09;41.84;38.65;45.14;;
49215;Laerm;45943;53.148;8.204;2022-11-15T03:16:45;42.61;39.55;45.22;;
49215;Laerm;45943;53.148;8.204;2022-11-15T03:19:19;42.25;39.27;51.17;;
49215;Laerm;45943;53.148;8.204;2022-11-15T03:21:48;42.99;39.27;49.95;;
49215;Laerm;45943;53.148;8.204;2022-11-15T03:24:19;41.95;37.92;44.91;;
49215;Laerm;45943;53.148;8.204;2022-11-15T03:26:47;46.95;38.65;64.97;;
49215;Laerm;45943;53.148;8.204;2022-11-15T03:29:23;41.43;37.05;47.17;;
49215;Laerm;45943;53.148;8.204;2022-11-15T03:31:56;47.74;38.48;65.56;;
49215;Laerm;45943;53.148;8.204;2022-11-15T03:34:41;46.55;38.30;64.49;;
49215;Laerm;45943;53.148;8.204;2022-11-15T03:37:10;42.44;39.81;45.47;;
49215;Laerm;45943;53.148;8.204;2022-11-15T03:39:38;41.95;38.97;44.79;;
49215;Laerm;45943;53.148;8.204;2022-11-15T03:47:26;42.25;37.95;45.07;;
49215;Laerm;45943;53.148;8.204;2022-11-15T03:49:59;42.32;39.68;44.41;;
49215;Laerm;45943;53.148;8.204;2022-11-15T03:52:31;41.95;39.12;43.99;;
49215;Laerm;45943;53.148;8.204;2022-11-15T03:55:00;42.00;38.65;44.83;;
49215;Laerm;45943;53.148;8.204;2022-11-15T03:57:26;44.20;38.65;52.51;;
49215;Laerm;45943;53.148;8.204;2022-11-15T03:59:52;43.12;38.48;45.80;;
49215;Laerm;45943;53.148;8.204;2022-11-15T04:02:19;42.62;39.55;47.64;;
49215;Laerm;45943;53.148;8.204;2022-11-15T04:04:45;47.71;40.73;65.88;;
49215;Laerm;45943;53.148;8.204;2022-11-15T04:07:11;42.85;39.81;44.71;;
49215;Laerm;45943;53.148;8.204;2022-11-15T04:09:37;42.65;40.18;45.25;;
49215;Laerm;45943;53.148;8.204;2022-11-15T04:12:21;43.11;40.30;47.36;;
49215;Laerm;45943;53.148;8.204;2022-11-15T04:15:01;42.78;40.06;45.12;;
49215;Laerm;45943;53.148;8.204;2022-11-15T04:17:38;43.04;40.18;46.26;;
49215;Laerm;45943;53.148;8.204;2022-11-15T04:20:11;43.19;40.41;48.41;;
49215;Laerm;45943;53.148;8.204;2022-11-15T04:22:57;54.78;40.18;73.17;;
49215;Laerm;45943;53.148;8.204;2022-11-15T04:25:42;46.35;41.13;64.29;;
49215;Laerm;45943;53.148;8.204;2022-11-15T04:28:09;49.75;41.58;66.56;;
49215;Laerm;45943;53.148;8.204;2022-11-15T04:30:35;47.27;40.68;66.25;;
49215;Laerm;45943;53.148;8.204;2022-11-15T04:33:01;48.79;40.41;67.55;;
49215;Laerm;45943;53.148;8.204;2022-11-15T04:35:28;44.10;41.40;54.74;;
49215;Laerm;45943;53.148;8.204;2022-11-15T04:37:55;46.67;41.49;62.63;;
49215;Laerm;45943;53.148;8.204;2022-11-15T04:40:21;49.96;40.93;66.59;;
49215;Laerm;45943;53.148;8.204;2022-11-15T04:42:46;43.49;41.13;47.42;;
49215;Laerm;45943;53.148;8.204;2022-11-15T04:45:13;43.62;41.23;45.22;;
49215;Laerm;45943;53.148;8.204;2022-11-15T04:47:38;43.91;41.98;47.42;;
49215;Laerm;45943;53.148;8.204;2022-11-15T04:50:05;43.62;40.52;49.03;;
49215;Laerm;45943;53.148;8.204;2022-11-15T04:52:31;44.00;41.03;50.23;;
49215;Laerm;45943;53.148;8.204;2022-11-15T04:54:57;48.11;41.23;65.96;;
49215;Laerm;45943;53.148;8.204;2022-11-15T04:57:23;46.58;41.31;62.96;;
49215;Laerm;45943;53.148;8.204;2022-11-15T04:59:49;43.80;41.58;46.17;;
49215;Laerm;45943;53.148;8.204;2022-11-15T05:02:15;46.58;41.98;63.72;;
49215;Laerm;45943;53.148;8.204;2022-11-15T05:04:41;46.40;41.74;61.88;;
49215;Laerm;45943;53.148;8.204;2022-11-15T05:07:07;46.41;41.74;60.63;;
49215;Laerm;45943;53.148;8.204;2022-11-15T05:09:33;43.85;41.66;46.20;;
49215;Laerm;45943;53.148;8.204;2022-11-15T05:11:59;48.51;41.90;65.06;;
49215;Laerm;45943;53.148;8.204;2022-11-15T05:14:25;48.32;41.98;65.23;;
49215;Laerm;45943;53.148;8.204;2022-11-15T05:16:51;44.08;42.21;56.06;;
49215;Laerm;45943;53.148;8.204;2022-11-15T05:19:17;50.21;42.28;66.25;;
49215;Laerm;45943;53.148;8.204;2022-11-15T05:21:43;48.93;42.35;69.50;;
49215;Laerm;45943;53.148;8.204;2022-11-15T05:24:10;53.91;42.42;68.53;;
49215;Laerm;45943;53.148;8.204;2022-11-15T05:26:37;47.15;42.56;63.95;;
49215;Laerm;45943;53.148;8.204;2022-11-15T05:29:02;52.67;42.82;71.76;;
49215;Laerm;45943;53.148;8.204;2022-11-15T05:31:28;48.03;42.56;65.54;;
49215;Laerm;45943;53.148;8.204;2022-11-15T05:33:56;51.37;42.76;66.59;;
49215;Laerm;45943;53.148;8.204;2022-11-15T05:36:31;51.28;42.89;66.72;;
49215;Laerm;45943;53.148;8.204;2022-11-15T05:38:59;47.64;43.01;65.04;;
49215;Laerm;45943;53.148;8.204;2022-11-15T05:41:44;49.29;42.82;68.20;;
49215;Laerm;45943;53.148;8.204;2022-11-15T05:44:14;45.20;42.82;54.74;;
49215;Laerm;45943;53.148;8.204;2022-11-15T05:46:42;49.74;42.42;68.11;;
49215;Laerm;45943;53.148;8.204;2022-11-15T05:49:13;51.77;42.95;69.01;;
49215;Laerm;45943;53.148;8.204;2022-11-15T05:51:45;53.31;41.98;73.42;;
49215;Laerm;45943;53.148;8.204;2022-11-15T05:54:12;51.97;42.60;66.97;;
49215;Laerm;45943;53.148;8.204;2022-11-15T05:56:39;55.64;41.98;69.68;;
49215;Laerm;45943;53.148;8.204;2022-11-15T05:59:07;49.25;42.35;64.38;;
49215;Laerm;45943;53.148;8.204;2022-11-15T06:01:33;56.85;42.76;74.28;;
49215;Laerm;45943;53.148;8.204;2022-11-15T06:04:00;53.01;42.82;72.99;;
49215;Laerm;45943;53.148;8.204;2022-11-15T06:06:27;51.47;42.13;66.38;;
49215;Laerm;45943;53.148;8.204;2022-11-15T06:08:54;48.62;42.76;62.28;;
49215;Laerm;45943;53.148;8.204;2022-11-15T06:11:20;49.50;42.89;66.66;;
49215;Laerm;45943;53.148;8.204;2022-11-15T06:13:46;49.81;42.95;66.68;;
49215;Laerm;45943;53.148;8.204;2022-11-15T06:16:12;53.70;43.48;68.54;;
49215;Laerm;45943;53.148;8.204;2022-11-15T06:18:38;47.47;43.53;65.09;;
49215;Laerm;45943;53.148;8.204;2022-11-15T06:21:05;53.15;43.07;67.19;;
49215;Laerm;45943;53.148;8.204;2022-11-15T06:23:32;56.31;44.36;71.00;;
49215;Laerm;45943;53.148;8.204;2022-11-15T06:25:59;56.10;44.41;74.72;;
49215;Laerm;45943;53.148;8.204;2022-11-15T06:28:32;53.06;44.09;75.65;;
49215;Laerm;45943;53.148;8.204;2022-11-15T06:31:05;52.89;43.31;69.41;;
49215;Laerm;45943;53.148;8.204;2022-11-15T06:33:32;51.22;43.74;67.04;;
49215;Laerm;45943;53.148;8.204;2022-11-15T06:36:03;51.77;44.14;67.32;;
49215;Laerm;45943;53.148;8.204;2022-11-15T06:38:29;54.66;44.63;68.18;;
49215;Laerm;45943;53.148;8.204;2022-11-15T06:41:02;56.72;44.14;70.87;;
49215;Laerm;45943;53.148;8.204;2022-11-15T06:43:28;53.96;45.11;69.18;;
49215;Laerm;45943;53.148;8.204;2022-11-15T06:45:54;56.03;44.23;68.05;;
49215;Laerm;45943;53.148;8.204;2022-11-15T06:48:20;56.14;43.94;68.15;;
49215;Laerm;45943;53.148;8.204;2022-11-15T06:50:57;54.98;44.18;63.81;;
49215;Laerm;45943;53.148;8.204;2022-11-15T06:53:24;53.46;42.76;70.59;;
49215;Laerm;45943;53.148;8.204;2022-11-15T06:55:50;56.17;42.89;74.00;;
49215;Laerm;45943;53.148;8.204;2022-11-15T06:58:16;55.02;43.19;72.99;;
49215;Laerm;45943;53.148;8.204;2022-11-15T07:00:42;51.36;43.01;61.85;;
49215;Laerm;45943;53.148;8.204;2022-11-15T07:03:09;51.65;42.06;64.81;;
49215;Laerm;45943;53.148;8.204;2022-11-15T07:05:35;54.43;43.19;79.61;;
49215;Laerm;45943;53.148;8.204;2022-11-15T07:08:02;68.87;42.49;103.34;;
49215;Laerm;45943;53.148;8.204;2022-11-15T07:10:28;72.13;44.32;97.75;;
49215;Laerm;45943;53.148;8.204;2022-11-15T07:12:55;74.08;50.53;84.18;;
49215;Laerm;45943;53.148;8.204;2022-11-15T07:15:25;62.17;42.82;77.82;;
49215;Laerm;45943;53.148;8.204;2022-11-15T07:17:51;55.66;43.01;79.07;;
49215;Laerm;45943;53.148;8.204;2022-11-15T07:20:18;60.64;43.25;86.21;;
49215;Laerm;45943;53.148;8.204;2022-11-15T07:22:44;54.72;42.13;70.71;;
49215;Laerm;45943;53.148;8.204;2022-11-15T07:25:13;59.86;42.69;88.80;;
49215;Laerm;45943;53.148;8.204;2022-11-15T07:27:39;53.46;43.25;73.72;;
49215;Laerm;45943;53.148;8.204;2022-11-15T07:30:05;52.94;43.79;75.74;;
49215;Laerm;45943;53.148;8.204;2022-11-15T07:32:31;66.23;44.14;85.10;;
49215;Laerm;45943;53.148;8.204;2022-11-15T07:34:57;54.93;43.19;71.87;;
49215;Laerm;45943;53.148;8.204;2022-11-15T07:37:23;53.08;42.76;71.12;;
49215;Laerm;45943;53.148;8.204;2022-11-15T07:39:49;51.31;42.56;72.28;;
49215;Laerm;45943;53.148;8.204;2022-11-15T07:42:15;52.33;42.56;74.59;;
49215;Laerm;45943;53.148;8.204;2022-11-15T07:45:00;55.99;42.82;75.10;;
49215;Laerm;45943;53.148;8.204;2022-11-15T07:47:28;57.87;43.58;80.05;;
49215;Laerm;45943;53.148;8.204;2022-11-15T07:49:54;53.81;42.49;74.10;;
49215;Laerm;45943;53.148;8.204;2022-11-15T07:52:20;55.91;43.36;82.43;;
49215;Laerm;45943;53.148;8.204;2022-11-15T07:54:46;52.26;42.63;65.91;;
49215;Laerm;45943;53.148;8.204;2022-11-15T07:57:12;56.12;43.19;69.74;;
49215;Laerm;45943;53.148;8.204;2022-11-15T07:59:38;57.74;42.95;79.97;;
49215;Laerm;45943;53.148;8.204;2022-11-15T08:02:04;64.74;43.48;83.21;;
49215;Laerm;45943;53.148;8.204;2022-11-15T08:04:30;58.13;43.13;80.97;;
49215;Laerm;45943;53.148;8.204;2022-11-15T08:06:56;60.98;43.58;86.22;;
49215;Laerm;45943;53.148;8.204;2022-11-15T08:09:22;56.96;43.01;83.43;;
49215;Laerm;45943;53.148;8.204;2022-11-15T08:11:48;60.08;42.82;74.87;;
49215;Laerm;45943;53.148;8.204;2022-11-15T08:14:14;53.46;42.35;69.89;;
49215;Laerm;45943;53.148;8.204;2022-11-15T08:16:40;60.53;42.95;71.31;;
49215;Laerm;45943;53.148;8.204;2022-11-15T08:19:07;66.85;43.42;83.46;;
49215;Laerm;45943;53.148;8.204;2022-11-15T08:21:32;56.74;42.49;69.22;;
49215;Laerm;45943;53.148;8.204;2022-11-15T08:23:58;50.27;41.66;66.38;;
49215;Laerm;45943;53.148;8.204;2022-11-15T08:26:25;55.26;42.76;70.19;;
49215;Laerm;45943;53.148;8.204;2022-11-15T08:28:54;51.02;42.21;66.17;;
49215;Laerm;45943;53.148;8.204;2022-11-15T08:31:20;56.38;42.56;72.22;;
49215;Laerm;45943;53.148;8.204;2022-11-15T08:33:46;56.87;42.21;83.06;;
49215;Laerm;45943;53.148;8.204;2022-11-15T08:36:15;58.81;42.28;88.00;;
49215;Laerm;45943;53.148;8.204;2022-11-15T08:38:42;56.50;42.56;70.10;;
49215;Laerm;45943;53.148;8.204;2022-11-15T08:41:15;54.50;42.35;69.95;;
49215;Laerm;45943;53.148;8.204;2022-11-15T08:43:45;53.65;42.56;75.01;;
49215;Laerm;45943;53.148;8.204;2022-11-15T08:46:12;48.42;40.93;71.00;;
49215;Laerm;45943;53.148;8.204;2022-11-15T08:48:39;51.32;42.21;64.14;;
49215;Laerm;45943;53.148;8.204;2022-11-15T08:51:05;50.15;42.06;62.45;;
49215;Laerm;45943;53.148;8.204;2022-11-15T08:53:31;49.66;42.49;68.68;;
49215;Laerm;45943;53.148;8.204;2022-11-15T08:55:57;50.72;42.49;63.95;;
49215;Laerm;45943;53.148;8.204;2022-11-15T08:58:23;73.86;42.21;86.07;;
49215;Laerm;45943;53.148;8.204;2022-11-15T09:00:49;63.57;42.49;84.64;;
49215;Laerm;45943;53.148;8.204;2022-11-15T09:03:15;63.98;42.49;83.05;;
49215;Laerm;45943;53.148;8.204;2022-11-15T09:05:42;71.25;41.66;84.91;;
49215;Laerm;45943;53.148;8.204;2022-11-15T09:08:08;56.12;42.49;88.57;;
49215;Laerm;45943;53.148;8.204;2022-11-15T09:10:34;63.76;43.01;86.53;;
49215;Laerm;45943;53.148;8.204;2022-11-15T09:13:00;57.20;42.95;76.94;;
49215;Laerm;45943;53.148;8.204;2022-11-15T09:15:26;56.57;42.13;75.91;;
49215;Laerm;45943;53.148;8.204;2022-11-15T09:17:52;53.96;42.06;68.98;;
49215;Laerm;45943;53.148;8.204;2022-11-15T09:20:18;52.80;42.82;67.68;;
49215;Laerm;45943;53.148;8.204;2022-11-15T09:22:44;55.31;42.28;72.02;;
49215;Laerm;45943;53.148;8.204;2022-11-15T09:25:10;52.96;42.76;74.06;;
49215;Laerm;45943;53.148;8.204;2022-11-15T09:27:36;57.19;42.89;87.57;;
49215;Laerm;45943;53.148;8.204;2022-11-15T09:30:02;56.75;43.13;84.04;;
49215;Laerm;45943;53.148;8.204;2022-11-15T09:32:29;55.79;42.06;79.33;;
49215;Laerm;45943;53.148;8.204;2022-11-15T09:34:56;54.87;42.06;85.97;;
49215;Laerm;45943;53.148;8.204;2022-11-15T09:37:22;55.98;41.90;76.86;;
49215;Laerm;45943;53.148;8.204;2022-11-15T09:39:48;58.08;41.82;80.16;;
49215;Laerm;45943;53.148;8.204;2022-11-15T09:50:06;57.37;41.98;88.94;;
49215;Laerm;45943;53.148;8.204;2022-11-15T09:52:35;56.62;41.98;83.39;;
49215;Laerm;45943;53.148;8.204;2022-11-15T09:55:02;56.43;41.31;86.83;;
49215;Laerm;45943;53.148;8.204;2022-11-15T09:57:52;54.05;41.90;87.38;;
49215;Laerm;45943;53.148;8.204;2022-11-15T10:00:34;59.16;42.06;86.83;;
49215;Laerm;45943;53.148;8.204;2022-11-15T10:05:46;47.20;40.83;60.85;;
49215;Laerm;45943;53.148;8.204;2022-11-15T10:08:31;51.30;41.74;64.69;;
49215;Laerm;45943;53.148;8.204;2022-11-15T10:11:10;55.57;42.89;69.65;;
49215;Laerm;45943;53.148;8.204;2022-11-15T10:13:41;59.12;42.06;79.55;;
49215;Laerm;45943;53.148;8.204;2022-11-15T10:16:22;53.09;41.49;75.17;;
49215;Laerm;45943;53.148;8.204;2022-11-15T10:24:28;54.78;41.82;73.63;;
49215;Laerm;45943;53.148;8.204;2022-11-15T10:26:55;48.60;41.66;71.78;;
49215;Laerm;45943;53.148;8.204;2022-11-15T10:29:23;55.33;41.74;72.88;;
49215;Laerm;45943;53.148;8.204;2022-11-15T10:31:50;53.29;40.18;68.37;;
49215;Laerm;45943;53.148;8.204;2022-11-15T10:34:19;53.26;42.06;69.05;;
49215;Laerm;45943;53.148;8.204;2022-11-15T10:36:55;53.93;42.76;67.15;;
49215;Laerm;45943;53.148;8.204;2022-11-15T10:39:22;54.90;41.90;68.17;;
49215;Laerm;45943;53.148;8.204;2022-11-15T10:41:48;54.25;42.42;65.70;;
49215;Laerm;45943;53.148;8.204;2022-11-15T10:49:21;51.19;41.90;64.53;;
49215;Laerm;45943;53.148;8.204;2022-11-15T10:57:22;56.20;42.35;72.88;;
49215;Laerm;45943;53.148;8.204;2022-11-15T10:59:52;49.68;41.49;62.96;;
49215;Laerm;45943;53.148;8.204;2022-11-15T11:02:34;47.59;40.93;62.81;;
49215;Laerm;45943;53.148;8.204;2022-11-15T11:05:03;48.18;41.22;61.87;;
49215;Laerm;45943;53.148;8.204;2022-11-15T11:07:32;53.54;41.58;65.89;;
49215;Laerm;45943;53.148;8.204;2022-11-15T11:10:18;51.05;41.03;65.23;;
49215;Laerm;45943;53.148;8.204;2022-11-15T11:12:46;51.01;41.82;65.07;;
49215;Laerm;45943;53.148;8.204;2022-11-15T11:15:15;53.35;41.03;66.27;;
49215;Laerm;45943;53.148;8.204;2022-11-15T11:20:29;53.74;40.63;83.00;;
49215;Laerm;45943;53.148;8.204;2022-11-15T11:23:19;54.06;41.31;64.93;;
49215;Laerm;45943;53.148;8.204;2022-11-15T11:26:01;63.25;41.22;73.73;;
49215;Laerm;45943;53.148;8.204;2022-11-15T11:28:40;65.09;41.40;80.09;;
49215;Laerm;45943;53.148;8.204;2022-11-15T11:34:04;75.68;42.28;85.28;;
49215;Laerm;45943;53.148;8.204;2022-11-15T11:36:48;72.02;41.74;81.71;;
49215;Laerm;45943;53.148;8.204;2022-11-15T11:39:27;59.37;41.13;81.44;;
49215;Laerm;45943;53.148;8.204;2022-11-15T11:42:02;59.05;42.35;71.47;;
49215;Laerm;45943;53.148;8.204;2022-11-15T11:44:45;57.68;41.90;78.31;;
49215;Laerm;45943;53.148;8.204;2022-11-15T11:47:23;56.32;41.74;78.92;;
49215;Laerm;45943;53.148;8.204;2022-11-15T11:49:52;65.11;41.98;85.47;;
49215;Laerm;45943;53.148;8.204;2022-11-15T11:52:33;70.44;44.28;77.17;;
49215;Laerm;45943;53.148;8.204;2022-11-15T11:55:16;65.51;45.80;76.42;;
49215;Laerm;45943;53.148;8.204;2022-11-15T11:57:54;61.81;46.88;75.34;;
49215;Laerm;45943;53.148;8.204;2022-11-15T12:00:25;65.97;44.67;76.17;;
49215;Laerm;45943;53.148;8.204;2022-11-15T12:05:41;65.64;47.60;78.81;;
49215;Laerm;45943;53.148;8.204;2022-11-15T12:08:32;67.74;43.36;79.48;;
49215;Laerm;45943;53.148;8.204;2022-11-15T12:11:22;67.95;42.42;84.51;;
49215;Laerm;45943;53.148;8.204;2022-11-15T12:13:55;59.93;42.56;82.66;;
49215;Laerm;45943;53.148;8.204;2022-11-15T12:16:27;71.58;42.21;97.43;;
49215;Laerm;45943;53.148;8.204;2022-11-15T12:18:54;71.16;45.96;84.19;;
49215;Laerm;45943;53.148;8.204;2022-11-15T12:24:37;73.41;49.02;85.18;;
49215;Laerm;45943;53.148;8.204;2022-11-15T12:29:40;70.21;56.25;76.80;;
49215;Laerm;45943;53.148;8.204;2022-11-15T12:32:37;70.24;47.55;76.48;;
49215;Laerm;45943;53.148;8.204;2022-11-15T12:35:06;70.10;55.80;79.03;;
49215;Laerm;45943;53.148;8.204;2022-11-15T12:37:48;69.81;51.91;82.77;;
49215;Laerm;45943;53.148;8.204;2022-11-15T12:43:35;71.94;64.44;80.61;;
49215;Laerm;45943;53.148;8.204;2022-11-15T12:45:51;71.89;65.58;80.02;;
49215;Laerm;45943;53.148;8.204;2022-11-15T12:58:40;67.42;42.21;88.76;;
49215;Laerm;45943;53.148;8.204;2022-11-15T13:01:07;73.76;52.53;87.11;;
49215;Laerm;45943;53.148;8.204;2022-11-15T13:03:34;69.63;47.40;81.16;;
49215;Laerm;45943;53.148;8.204;2022-11-15T13:06:03;69.43;54.49;77.32;;
49215;Laerm;45943;53.148;8.204;2022-11-15T13:17:01;72.35;56.32;77.84;;
49215;Laerm;45943;53.148;8.204;2022-11-15T13:19:27;70.37;45.57;77.89;;
49215;Laerm;45943;53.148;8.204;2022-11-15T13:21:53;70.10;49.30;81.99;;
49215;Laerm;45943;53.148;8.204;2022-11-15T13:24:38;71.39;47.26;97.53;;
49215;Laerm;45943;53.148;8.204;2022-11-15T13:27:15;70.86;52.68;85.79;;
49215;Laerm;45943;53.148;8.204;2022-11-15T13:29:43;69.86;53.89;81.71;;
49215;Laerm;45943;53.148;8.204;2022-11-15T13:32:12;72.89;53.84;87.25;;
49215;Laerm;45943;53.148;8.204;2022-11-15T13:34:43;73.04;53.21;86.32;;
49215;Laerm;45943;53.148;8.204;2022-11-15T13:39:48;73.13;47.03;87.47;;
49215;Laerm;45943;53.148;8.204;2022-11-15T13:42:16;69.62;46.20;84.87;;
49215;Laerm;45943;53.148;8.204;2022-11-15T13:44:59;67.86;46.54;82.32;;
49215;Laerm;45943;53.148;8.204;2022-11-15T13:47:27;69.76;49.14;81.00;;
49215;Laerm;45943;53.148;8.204;2022-11-15T13:49:57;68.17;48.27;83.96;;
49215;Laerm;45943;53.148;8.204;2022-11-15T13:52:27;61.42;43.07;81.44;;
49215;Laerm;45943;53.148;8.204;2022-11-15T13:55:02;54.86;42.21;73.29;;
49215;Laerm;45943;53.148;8.204;2022-11-15T13:57:57;54.39;42.35;69.00;;
49215;Laerm;45943;53.148;8.204;2022-11-15T14:02:56;56.39;42.63;74.40;;
49215;Laerm;45943;53.148;8.204;2022-11-15T14:05:26;60.49;42.21;88.91;;
49215;Laerm;45943;53.148;8.204;2022-11-15T14:08:01;55.49;40.93;80.27;;
49215;Laerm;45943;53.148;8.204;2022-11-15T14:10:36;53.79;41.90;77.05;;
49215;Laerm;45943;53.148;8.204;2022-11-15T14:13:03;57.50;43.19;83.32;;
49215;Laerm;45943;53.148;8.204;2022-11-15T14:15:34;63.01;43.99;96.93;;
49215;Laerm;45943;53.148;8.204;2022-11-15T14:18:00;48.83;40.83;74.05;;
49215;Laerm;45943;53.148;8.204;2022-11-15T14:20:33;65.41;41.31;82.15;;
49215;Laerm;45943;53.148;8.204;2022-11-15T14:23:02;55.55;42.35;79.01;;
49215;Laerm;45943;53.148;8.204;2022-11-15T14:25:33;63.74;41.03;83.69;;
49215;Laerm;45943;53.148;8.204;2022-11-15T14:30:36;57.37;40.30;81.93;;
49215;Laerm;45943;53.148;8.204;2022-11-15T14:33:17;60.96;40.73;86.60;;
49215;Laerm;45943;53.148;8.204;2022-11-15T14:35:44;57.03;40.52;86.42;;
49215;Laerm;45943;53.148;8.204;2022-11-15T14:38:10;53.47;41.66;77.94;;
49215;Laerm;45943;53.148;8.204;2022-11-15T14:40:36;59.25;42.28;78.46;;
49215;Laerm;45943;53.148;8.204;2022-11-15T14:43:02;61.15;40.93;79.25;;
49215;Laerm;45943;53.148;8.204;2022-11-15T14:45:28;57.19;41.22;75.91;;
49215;Laerm;45943;53.148;8.204;2022-11-15T14:47:54;59.81;41.40;87.28;;
49215;Laerm;45943;53.148;8.204;2022-11-15T14:50:21;59.74;41.82;85.34;;
49215;Laerm;45943;53.148;8.204;2022-11-15T14:52:48;54.74;41.90;83.89;;
49215;Laerm;45943;53.148;8.204;2022-11-15T14:55:21;56.68;40.83;85.28;;
49215;Laerm;45943;53.148;8.204;2022-11-15T14:57:48;59.70;40.73;83.90;;
49215;Laerm;45943;53.148;8.204;2022-11-15T15:00:15;57.04;41.03;84.58;;
49215;Laerm;45943;53.148;8.204;2022-11-15T15:02:43;55.22;41.31;73.17;;
49215;Laerm;45943;53.148;8.204;2022-11-15T15:07:43;50.69;40.93;61.87;;
49215;Laerm;45943;53.148;8.204;2022-11-15T15:10:10;62.24;42.66;91.14;;
49215;Laerm;45943;53.148;8.204;2022-11-15T15:12:36;57.17;41.49;67.84;;
49215;Laerm;45943;53.148;8.204;2022-11-15T15:15:02;53.62;41.74;68.38;;
49215;Laerm;45943;53.148;8.204;2022-11-15T15:17:28;54.22;41.66;75.27;;
49215;Laerm;45943;53.148;8.204;2022-11-15T15:19:54;56.76;42.35;75.70;;
49215;Laerm;45943;53.148;8.204;2022-11-15T15:22:20;55.85;42.28;73.30;;
49215;Laerm;45943;53.148;8.204;2022-11-15T15:24:51;53.49;41.98;67.56;;
49215;Laerm;45943;53.148;8.204;2022-11-15T15:27:17;59.37;42.95;77.92;;
49215;Laerm;45943;53.148;8.204;2022-11-15T15:29:43;54.04;41.98;65.35;;
49215;Laerm;45943;53.148;8.204;2022-11-15T15:32:10;54.00;41.31;73.94;;
49215;Laerm;45943;53.148;8.204;2022-11-15T15:34:36;53.83;41.40;72.99;;
49215;Laerm;45943;53.148;8.204;2022-11-15T15:37:21;51.36;42.60;71.39;;
49215;Laerm;45943;53.148;8.204;2022-11-15T15:39:54;61.12;41.86;84.20;;
49215;Laerm;45943;53.148;8.204;2022-11-15T15:42:21;54.21;41.82;76.86;;
49215;Laerm;45943;53.148;8.204;2022-11-15T15:44:48;53.57;42.82;67.43;;
49215;Laerm;45943;53.148;8.204;2022-11-15T15:47:22;52.50;42.49;67.07;;